sensor_id;sensor_type;location;lat;lon;timestamp;P1;durP1;ratioP1;P2;durP2;ratioP2
4424;SDS011;2225;53.568;13.266;2022-08-07T00:00:23;16.20;;;8.90;;
4424;SDS011;2225;53.568;13.266;2022-08-07T00:02:51;19.60;;;8.50;;
4424;SDS011;2225;53.568;13.266;2022-08-07T00:05:19;23.00;;;8.43;;
4424;SDS011;2225;53.568;13.266;2022-08-07T00:07:49;14.37;;;7.73;;
4424;SDS011;2225;53.568;13.266;2022-08-07T00:10:27;14.37;;;8.63;;
4424;SDS011;2225;53.568;13.266;2022-08-07T00:12:58;14.30;;;8.47;;
4424;SDS011;2225;53.568;13.266;2022-08-07T00:15:47;16.03;;;8.83;;
4424;SDS011;2225;53.568;13.266;2022-08-07T00:18:17;13.13;;;8.60;;
4424;SDS011;2225;53.568;13.266;2022-08-07T00:20:57;13.43;;;9.13;;
4424;SDS011;2225;53.568;13.266;2022-08-07T00:23:49;17.20;;;9.30;;
4424;SDS011;2225;53.568;13.266;2022-08-07T00:26:16;15.73;;;8.50;;
4424;SDS011;2225;53.568;13.266;2022-08-07T00:29:03;14.60;;;8.30;;
4424;SDS011;2225;53.568;13.266;2022-08-07T00:31:31;20.80;;;8.50;;
4424;SDS011;2225;53.568;13.266;2022-08-07T00:34:07;16.77;;;8.90;;
4424;SDS011;2225;53.568;13.266;2022-08-07T00:36:35;15.33;;;8.20;;
4424;SDS011;2225;53.568;13.266;2022-08-07T00:39:08;14.23;;;8.23;;
4424;SDS011;2225;53.568;13.266;2022-08-07T00:41:49;19.70;;;8.60;;
4424;SDS011;2225;53.568;13.266;2022-08-07T00:44:30;16.70;;;9.40;;
4424;SDS011;2225;53.568;13.266;2022-08-07T00:46:59;20.03;;;9.53;;
4424;SDS011;2225;53.568;13.266;2022-08-07T00:49:27;20.87;;;8.60;;
4424;SDS011;2225;53.568;13.266;2022-08-07T00:52:15;14.87;;;8.00;;
4424;SDS011;2225;53.568;13.266;2022-08-07T00:54:45;15.53;;;8.00;;
4424;SDS011;2225;53.568;13.266;2022-08-07T00:57:20;15.40;;;8.07;;
4424;SDS011;2225;53.568;13.266;2022-08-07T00:59:51;15.30;;;9.07;;
4424;SDS011;2225;53.568;13.266;2022-08-07T01:02:19;12.90;;;7.60;;
4424;SDS011;2225;53.568;13.266;2022-08-07T01:04:54;14.17;;;8.43;;
4424;SDS011;2225;53.568;13.266;2022-08-07T01:07:25;12.70;;;8.10;;
4424;SDS011;2225;53.568;13.266;2022-08-07T01:09:55;12.67;;;8.47;;
4424;SDS011;2225;53.568;13.266;2022-08-07T01:12:36;20.30;;;8.40;;
4424;SDS011;2225;53.568;13.266;2022-08-07T01:15:19;15.13;;;9.10;;
4424;SDS011;2225;53.568;13.266;2022-08-07T01:18:08;14.57;;;8.87;;
4424;SDS011;2225;53.568;13.266;2022-08-07T01:20:41;12.07;;;8.00;;
4424;SDS011;2225;53.568;13.266;2022-08-07T01:23:25;15.80;;;8.33;;
4424;SDS011;2225;53.568;13.266;2022-08-07T01:26:06;16.87;;;8.60;;
4424;SDS011;2225;53.568;13.266;2022-08-07T01:28:46;15.30;;;8.00;;
4424;SDS011;2225;53.568;13.266;2022-08-07T01:31:20;13.17;;;7.90;;
4424;SDS011;2225;53.568;13.266;2022-08-07T01:34:09;11.60;;;7.60;;
4424;SDS011;2225;53.568;13.266;2022-08-07T01:36:39;12.83;;;7.33;;
4424;SDS011;2225;53.568;13.266;2022-08-07T01:39:13;15.40;;;7.83;;
4424;SDS011;2225;53.568;13.266;2022-08-07T01:41:46;15.60;;;8.57;;
4424;SDS011;2225;53.568;13.266;2022-08-07T01:44:34;14.43;;;7.40;;
4424;SDS011;2225;53.568;13.266;2022-08-07T01:47:02;15.80;;;8.53;;
4424;SDS011;2225;53.568;13.266;2022-08-07T01:49:50;12.57;;;8.27;;
4424;SDS011;2225;53.568;13.266;2022-08-07T01:52:21;14.60;;;7.90;;
4424;SDS011;2225;53.568;13.266;2022-08-07T01:54:52;16.23;;;8.97;;
4424;SDS011;2225;53.568;13.266;2022-08-07T01:57:26;13.53;;;7.90;;
4424;SDS011;2225;53.568;13.266;2022-08-07T02:00:16;16.37;;;7.30;;
4424;SDS011;2225;53.568;13.266;2022-08-07T02:02:55;15.07;;;8.30;;
4424;SDS011;2225;53.568;13.266;2022-08-07T02:05:51;23.20;;;8.67;;
4424;SDS011;2225;53.568;13.266;2022-08-07T02:08:31;15.17;;;7.50;;
4424;SDS011;2225;53.568;13.266;2022-08-07T02:11:04;15.00;;;8.63;;
4424;SDS011;2225;53.568;13.266;2022-08-07T02:13:36;12.20;;;7.27;;
4424;SDS011;2225;53.568;13.266;2022-08-07T02:16:26;12.10;;;7.50;;
4424;SDS011;2225;53.568;13.266;2022-08-07T02:19:01;15.80;;;8.13;;
4424;SDS011;2225;53.568;13.266;2022-08-07T02:21:53;18.83;;;9.33;;
4424;SDS011;2225;53.568;13.266;2022-08-07T02:24:24;15.37;;;8.63;;
4424;SDS011;2225;53.568;13.266;2022-08-07T02:26:55;20.30;;;9.00;;
4424;SDS011;2225;53.568;13.266;2022-08-07T02:29:27;13.50;;;8.23;;
4424;SDS011;2225;53.568;13.266;2022-08-07T02:31:56;17.53;;;7.90;;
4424;SDS011;2225;53.568;13.266;2022-08-07T02:34:26;12.33;;;8.33;;
4424;SDS011;2225;53.568;13.266;2022-08-07T02:36:57;12.63;;;7.80;;
4424;SDS011;2225;53.568;13.266;2022-08-07T02:39:35;17.83;;;8.13;;
4424;SDS011;2225;53.568;13.266;2022-08-07T02:42:12;14.27;;;8.70;;
4424;SDS011;2225;53.568;13.266;2022-08-07T02:44:44;12.20;;;8.30;;
4424;SDS011;2225;53.568;13.266;2022-08-07T02:47:19;13.77;;;8.40;;
4424;SDS011;2225;53.568;13.266;2022-08-07T02:49:52;14.00;;;8.47;;
4424;SDS011;2225;53.568;13.266;2022-08-07T02:52:41;13.47;;;7.73;;
4424;SDS011;2225;53.568;13.266;2022-08-07T02:55:30;22.63;;;8.40;;
4424;SDS011;2225;53.568;13.266;2022-08-07T02:58:20;12.23;;;7.60;;
4424;SDS011;2225;53.568;13.266;2022-08-07T03:00:53;11.93;;;7.77;;
4424;SDS011;2225;53.568;13.266;2022-08-07T03:03:26;13.50;;;8.10;;
4424;SDS011;2225;53.568;13.266;2022-08-07T03:06:19;14.33;;;8.40;;
4424;SDS011;2225;53.568;13.266;2022-08-07T03:08:51;15.40;;;8.73;;
4424;SDS011;2225;53.568;13.266;2022-08-07T03:11:19;18.70;;;9.07;;
4424;SDS011;2225;53.568;13.266;2022-08-07T03:13:54;21.30;;;8.57;;
4424;SDS011;2225;53.568;13.266;2022-08-07T03:16:27;11.40;;;7.40;;
4424;SDS011;2225;53.568;13.266;2022-08-07T03:18:57;11.63;;;7.70;;
4424;SDS011;2225;53.568;13.266;2022-08-07T03:21:26;13.00;;;8.07;;
4424;SDS011;2225;53.568;13.266;2022-08-07T03:23:58;16.03;;;7.77;;
4424;SDS011;2225;53.568;13.266;2022-08-07T03:26:46;12.80;;;7.17;;
4424;SDS011;2225;53.568;13.266;2022-08-07T03:29:24;14.43;;;7.23;;
4424;SDS011;2225;53.568;13.266;2022-08-07T03:32:05;14.57;;;7.97;;
4424;SDS011;2225;53.568;13.266;2022-08-07T03:34:39;19.33;;;9.07;;
4424;SDS011;2225;53.568;13.266;2022-08-07T03:37:31;14.60;;;8.13;;
4424;SDS011;2225;53.568;13.266;2022-08-07T03:40:18;13.20;;;7.50;;
4424;SDS011;2225;53.568;13.266;2022-08-07T03:42:47;13.80;;;7.73;;
4424;SDS011;2225;53.568;13.266;2022-08-07T03:45:17;13.77;;;8.10;;
4424;SDS011;2225;53.568;13.266;2022-08-07T03:48:00;13.20;;;7.40;;
4424;SDS011;2225;53.568;13.266;2022-08-07T03:50:29;15.20;;;8.60;;
4424;SDS011;2225;53.568;13.266;2022-08-07T03:53:00;16.83;;;7.90;;
4424;SDS011;2225;53.568;13.266;2022-08-07T03:55:29;14.93;;;7.80;;
4424;SDS011;2225;53.568;13.266;2022-08-07T03:58:17;10.77;;;6.83;;
4424;SDS011;2225;53.568;13.266;2022-08-07T04:01:08;11.03;;;7.27;;
4424;SDS011;2225;53.568;13.266;2022-08-07T04:03:40;18.70;;;8.27;;
4424;SDS011;2225;53.568;13.266;2022-08-07T04:06:22;15.60;;;8.57;;
4424;SDS011;2225;53.568;13.266;2022-08-07T04:09:03;17.90;;;8.70;;
4424;SDS011;2225;53.568;13.266;2022-08-07T04:11:31;22.40;;;8.17;;
4424;SDS011;2225;53.568;13.266;2022-08-07T04:14:19;16.30;;;7.83;;
4424;SDS011;2225;53.568;13.266;2022-08-07T04:17:07;16.00;;;8.67;;
4424;SDS011;2225;53.568;13.266;2022-08-07T04:19:46;29.50;;;8.23;;
4424;SDS011;2225;53.568;13.266;2022-08-07T04:22:18;13.27;;;7.40;;
4424;SDS011;2225;53.568;13.266;2022-08-07T04:24:48;12.63;;;6.87;;
4424;SDS011;2225;53.568;13.266;2022-08-07T04:27:16;12.57;;;7.13;;
4424;SDS011;2225;53.568;13.266;2022-08-07T04:29:53;13.33;;;8.47;;
4424;SDS011;2225;53.568;13.266;2022-08-07T04:32:35;12.73;;;7.30;;
4424;SDS011;2225;53.568;13.266;2022-08-07T04:35:04;15.60;;;7.40;;
4424;SDS011;2225;53.568;13.266;2022-08-07T04:37:37;12.80;;;7.30;;
4424;SDS011;2225;53.568;13.266;2022-08-07T04:40:24;12.33;;;7.10;;
4424;SDS011;2225;53.568;13.266;2022-08-07T04:42:57;13.77;;;8.30;;
4424;SDS011;2225;53.568;13.266;2022-08-07T04:45:34;12.40;;;8.03;;
4424;SDS011;2225;53.568;13.266;2022-08-07T04:51:25;15.07;;;8.00;;
4424;SDS011;2225;53.568;13.266;2022-08-07T04:57:25;10.10;;;6.73;;
4424;SDS011;2225;53.568;13.266;2022-08-07T05:00:18;17.20;;;8.17;;
4424;SDS011;2225;53.568;13.266;2022-08-07T05:03:00;16.33;;;7.80;;
4424;SDS011;2225;53.568;13.266;2022-08-07T05:06:11;13.00;;;8.77;;
4424;SDS011;2225;53.568;13.266;2022-08-07T05:11:42;16.27;;;7.40;;
4424;SDS011;2225;53.568;13.266;2022-08-07T05:14:25;12.80;;;7.67;;
4424;SDS011;2225;53.568;13.266;2022-08-07T05:17:21;12.13;;;7.27;;
4424;SDS011;2225;53.568;13.266;2022-08-07T05:20:14;13.40;;;7.13;;
4424;SDS011;2225;53.568;13.266;2022-08-07T05:22:50;14.07;;;8.30;;
4424;SDS011;2225;53.568;13.266;2022-08-07T05:25:21;13.03;;;7.57;;
4424;SDS011;2225;53.568;13.266;2022-08-07T05:28:10;14.77;;;6.83;;
4424;SDS011;2225;53.568;13.266;2022-08-07T05:30:47;12.13;;;7.30;;
4424;SDS011;2225;53.568;13.266;2022-08-07T05:33:18;11.10;;;6.93;;
4424;SDS011;2225;53.568;13.266;2022-08-07T05:35:50;11.37;;;6.30;;
4424;SDS011;2225;53.568;13.266;2022-08-07T05:38:22;10.40;;;6.27;;
4424;SDS011;2225;53.568;13.266;2022-08-07T05:41:09;11.73;;;7.43;;
4424;SDS011;2225;53.568;13.266;2022-08-07T05:43:51;10.97;;;7.23;;
4424;SDS011;2225;53.568;13.266;2022-08-07T05:46:41;14.40;;;6.40;;
4424;SDS011;2225;53.568;13.266;2022-08-07T05:49:09;11.50;;;6.73;;
4424;SDS011;2225;53.568;13.266;2022-08-07T05:51:42;13.10;;;7.20;;
4424;SDS011;2225;53.568;13.266;2022-08-07T05:54:17;10.97;;;6.80;;
4424;SDS011;2225;53.568;13.266;2022-08-07T05:57:06;15.70;;;6.10;;
4424;SDS011;2225;53.568;13.266;2022-08-07T05:59:35;13.30;;;7.00;;
4424;SDS011;2225;53.568;13.266;2022-08-07T06:02:26;10.10;;;5.87;;
4424;SDS011;2225;53.568;13.266;2022-08-07T06:05:02;23.13;;;6.93;;
4424;SDS011;2225;53.568;13.266;2022-08-07T06:07:37;13.60;;;6.00;;
4424;SDS011;2225;53.568;13.266;2022-08-07T06:10:25;13.33;;;6.60;;
4424;SDS011;2225;53.568;13.266;2022-08-07T06:12:54;22.80;;;5.90;;
4424;SDS011;2225;53.568;13.266;2022-08-07T06:15:22;28.50;;;5.07;;
4424;SDS011;2225;53.568;13.266;2022-08-07T06:18:10;12.23;;;4.90;;
4424;SDS011;2225;53.568;13.266;2022-08-07T06:20:40;9.50;;;4.63;;
4424;SDS011;2225;53.568;13.266;2022-08-07T06:23:30;10.80;;;4.77;;
4424;SDS011;2225;53.568;13.266;2022-08-07T06:26:18;10.40;;;4.30;;
4424;SDS011;2225;53.568;13.266;2022-08-07T06:28:50;9.57;;;4.53;;
4424;SDS011;2225;53.568;13.266;2022-08-07T06:31:19;15.70;;;4.37;;
4424;SDS011;2225;53.568;13.266;2022-08-07T06:34:04;19.43;;;4.63;;
4424;SDS011;2225;53.568;13.266;2022-08-07T06:36:31;11.43;;;5.00;;
4424;SDS011;2225;53.568;13.266;2022-08-07T06:39:01;13.50;;;4.80;;
4424;SDS011;2225;53.568;13.266;2022-08-07T06:42:10;10.80;;;4.80;;
4424;SDS011;2225;53.568;13.266;2022-08-07T06:45:10;10.93;;;4.83;;
4424;SDS011;2225;53.568;13.266;2022-08-07T06:47:48;11.40;;;4.80;;
4424;SDS011;2225;53.568;13.266;2022-08-07T06:50:28;11.47;;;3.90;;
4424;SDS011;2225;53.568;13.266;2022-08-07T06:52:58;7.57;;;3.90;;
4424;SDS011;2225;53.568;13.266;2022-08-07T06:55:30;13.00;;;4.53;;
4424;SDS011;2225;53.568;13.266;2022-08-07T06:58:17;9.97;;;4.43;;
4424;SDS011;2225;53.568;13.266;2022-08-07T07:00:58;12.80;;;3.80;;
4424;SDS011;2225;53.568;13.266;2022-08-07T07:03:29;10.80;;;3.60;;
4424;SDS011;2225;53.568;13.266;2022-08-07T07:06:15;15.27;;;4.40;;
4424;SDS011;2225;53.568;13.266;2022-08-07T07:08:51;12.63;;;4.27;;
4424;SDS011;2225;53.568;13.266;2022-08-07T07:11:19;10.67;;;3.70;;
4424;SDS011;2225;53.568;13.266;2022-08-07T07:14:06;14.33;;;3.93;;
4424;SDS011;2225;53.568;13.266;2022-08-07T07:16:35;10.20;;;3.43;;
4424;SDS011;2225;53.568;13.266;2022-08-07T07:19:17;8.33;;;3.60;;
4424;SDS011;2225;53.568;13.266;2022-08-07T07:22:11;7.33;;;3.13;;
4424;SDS011;2225;53.568;13.266;2022-08-07T07:24:59;8.87;;;3.40;;
4424;SDS011;2225;53.568;13.266;2022-08-07T07:28:32;6.43;;;2.63;;
4424;SDS011;2225;53.568;13.266;2022-08-07T07:31:05;6.93;;;2.87;;
4424;SDS011;2225;53.568;13.266;2022-08-07T07:33:47;8.43;;;2.63;;
4424;SDS011;2225;53.568;13.266;2022-08-07T07:36:22;6.53;;;2.13;;
4424;SDS011;2225;53.568;13.266;2022-08-07T07:38:58;5.47;;;1.80;;
4424;SDS011;2225;53.568;13.266;2022-08-07T07:41:28;8.67;;;2.30;;
4424;SDS011;2225;53.568;13.266;2022-08-07T07:44:17;11.27;;;3.00;;
4424;SDS011;2225;53.568;13.266;2022-08-07T07:46:52;7.73;;;2.50;;
4424;SDS011;2225;53.568;13.266;2022-08-07T07:49:39;10.03;;;2.93;;
4424;SDS011;2225;53.568;13.266;2022-08-07T07:52:28;13.03;;;2.53;;
4424;SDS011;2225;53.568;13.266;2022-08-07T07:54:56;11.60;;;2.27;;
4424;SDS011;2225;53.568;13.266;2022-08-07T07:57:25;9.00;;;2.90;;
4424;SDS011;2225;53.568;13.266;2022-08-07T08:00:13;12.73;;;2.67;;
4424;SDS011;2225;53.568;13.266;2022-08-07T08:02:56;11.50;;;2.20;;
4424;SDS011;2225;53.568;13.266;2022-08-07T08:05:32;6.40;;;2.13;;
4424;SDS011;2225;53.568;13.266;2022-08-07T08:08:24;6.20;;;2.57;;
4424;SDS011;2225;53.568;13.266;2022-08-07T08:11:01;7.60;;;2.43;;
4424;SDS011;2225;53.568;13.266;2022-08-07T08:13:30;5.30;;;2.30;;
4424;SDS011;2225;53.568;13.266;2022-08-07T08:16:18;8.23;;;2.40;;
4424;SDS011;2225;53.568;13.266;2022-08-07T08:18:50;7.77;;;2.40;;
4424;SDS011;2225;53.568;13.266;2022-08-07T08:21:20;9.73;;;2.70;;
4424;SDS011;2225;53.568;13.266;2022-08-07T08:24:26;8.53;;;2.93;;
4424;SDS011;2225;53.568;13.266;2022-08-07T08:27:37;7.47;;;3.10;;
4424;SDS011;2225;53.568;13.266;2022-08-07T08:30:10;9.90;;;3.87;;
4424;SDS011;2225;53.568;13.266;2022-08-07T08:32:46;8.70;;;2.80;;
4424;SDS011;2225;53.568;13.266;2022-08-07T08:35:20;7.30;;;2.80;;
4424;SDS011;2225;53.568;13.266;2022-08-07T08:37:55;8.73;;;3.10;;
4424;SDS011;2225;53.568;13.266;2022-08-07T08:40:35;8.60;;;3.60;;
4424;SDS011;2225;53.568;13.266;2022-08-07T08:45:51;7.23;;;3.20;;
4424;SDS011;2225;53.568;13.266;2022-08-07T08:51:48;8.27;;;2.90;;
4424;SDS011;2225;53.568;13.266;2022-08-07T08:54:46;7.17;;;3.57;;
4424;SDS011;2225;53.568;13.266;2022-08-07T08:57:41;11.83;;;4.63;;
4424;SDS011;2225;53.568;13.266;2022-08-07T09:00:13;7.27;;;3.80;;
4424;SDS011;2225;53.568;13.266;2022-08-07T09:08:20;7.33;;;3.57;;
4424;SDS011;2225;53.568;13.266;2022-08-07T09:14:36;6.60;;;3.60;;
4424;SDS011;2225;53.568;13.266;2022-08-07T09:17:33;11.43;;;4.80;;
4424;SDS011;2225;53.568;13.266;2022-08-07T09:20:41;6.80;;;3.50;;
4424;SDS011;2225;53.568;13.266;2022-08-07T09:23:46;9.10;;;3.50;;
4424;SDS011;2225;53.568;13.266;2022-08-07T09:26:43;8.03;;;4.17;;
4424;SDS011;2225;53.568;13.266;2022-08-07T09:29:26;6.53;;;3.03;;
4424;SDS011;2225;53.568;13.266;2022-08-07T09:32:38;7.97;;;3.80;;
4424;SDS011;2225;53.568;13.266;2022-08-07T09:36:08;7.57;;;3.77;;
4424;SDS011;2225;53.568;13.266;2022-08-07T09:41:29;7.50;;;3.60;;
4424;SDS011;2225;53.568;13.266;2022-08-07T09:44:30;7.37;;;3.57;;
4424;SDS011;2225;53.568;13.266;2022-08-07T09:48:09;7.53;;;2.87;;
4424;SDS011;2225;53.568;13.266;2022-08-07T09:54:02;7.67;;;3.60;;
4424;SDS011;2225;53.568;13.266;2022-08-07T09:59:51;8.33;;;3.57;;
4424;SDS011;2225;53.568;13.266;2022-08-07T10:06:19;7.90;;;3.43;;
4424;SDS011;2225;53.568;13.266;2022-08-07T10:09:28;8.10;;;3.70;;
4424;SDS011;2225;53.568;13.266;2022-08-07T10:18:44;7.10;;;3.67;;
4424;SDS011;2225;53.568;13.266;2022-08-07T10:21:42;8.87;;;3.90;;
4424;SDS011;2225;53.568;13.266;2022-08-07T10:25:02;6.80;;;3.30;;
4424;SDS011;2225;53.568;13.266;2022-08-07T10:40:36;8.63;;;3.50;;
4424;SDS011;2225;53.568;13.266;2022-08-07T10:43:13;5.33;;;3.00;;
4424;SDS011;2225;53.568;13.266;2022-08-07T10:46:00;7.40;;;3.53;;
4424;SDS011;2225;53.568;13.266;2022-08-07T10:48:46;6.40;;;3.20;;
4424;SDS011;2225;53.568;13.266;2022-08-07T10:54:45;6.40;;;3.00;;
4424;SDS011;2225;53.568;13.266;2022-08-07T10:57:46;6.17;;;3.30;;
4424;SDS011;2225;53.568;13.266;2022-08-07T11:00:44;8.00;;;3.50;;
4424;SDS011;2225;53.568;13.266;2022-08-07T11:03:37;5.80;;;3.07;;
4424;SDS011;2225;53.568;13.266;2022-08-07T11:06:59;5.27;;;3.00;;
4424;SDS011;2225;53.568;13.266;2022-08-07T11:09:51;7.80;;;3.70;;
4424;SDS011;2225;53.568;13.266;2022-08-07T11:12:39;8.00;;;3.40;;
4424;SDS011;2225;53.568;13.266;2022-08-07T11:15:28;6.67;;;3.60;;
4424;SDS011;2225;53.568;13.266;2022-08-07T11:18:07;7.67;;;2.87;;
4424;SDS011;2225;53.568;13.266;2022-08-07T11:20:48;5.87;;;3.07;;
4424;SDS011;2225;53.568;13.266;2022-08-07T11:23:34;6.23;;;3.43;;
4424;SDS011;2225;53.568;13.266;2022-08-07T11:26:27;6.57;;;3.90;;
4424;SDS011;2225;53.568;13.266;2022-08-07T11:32:11;6.77;;;2.83;;
4424;SDS011;2225;53.568;13.266;2022-08-07T11:34:55;5.33;;;2.40;;
4424;SDS011;2225;53.568;13.266;2022-08-07T11:43:25;4.53;;;2.30;;
4424;SDS011;2225;53.568;13.266;2022-08-07T11:46:20;6.93;;;3.00;;
4424;SDS011;2225;53.568;13.266;2022-08-07T11:52:07;10.07;;;2.70;;
4424;SDS011;2225;53.568;13.266;2022-08-07T11:55:23;6.03;;;2.73;;
4424;SDS011;2225;53.568;13.266;2022-08-07T12:02:31;4.93;;;2.40;;
4424;SDS011;2225;53.568;13.266;2022-08-07T12:05:39;5.70;;;3.00;;
4424;SDS011;2225;53.568;13.266;2022-08-07T12:08:24;6.00;;;3.07;;
4424;SDS011;2225;53.568;13.266;2022-08-07T12:11:18;4.87;;;3.00;;
4424;SDS011;2225;53.568;13.266;2022-08-07T12:14:31;4.30;;;2.27;;
4424;SDS011;2225;53.568;13.266;2022-08-07T12:17:28;5.87;;;2.50;;
4424;SDS011;2225;53.568;13.266;2022-08-07T12:20:29;5.30;;;2.60;;
4424;SDS011;2225;53.568;13.266;2022-08-07T12:26:27;5.17;;;2.67;;
4424;SDS011;2225;53.568;13.266;2022-08-07T12:29:17;6.70;;;3.07;;
4424;SDS011;2225;53.568;13.266;2022-08-07T12:32:13;6.57;;;2.83;;
4424;SDS011;2225;53.568;13.266;2022-08-07T12:34:56;6.20;;;2.47;;
4424;SDS011;2225;53.568;13.266;2022-08-07T12:37:26;6.33;;;2.80;;
4424;SDS011;2225;53.568;13.266;2022-08-07T12:40:21;5.63;;;2.80;;
4424;SDS011;2225;53.568;13.266;2022-08-07T12:43:11;6.20;;;2.90;;
4424;SDS011;2225;53.568;13.266;2022-08-07T12:46:07;5.80;;;2.93;;
4424;SDS011;2225;53.568;13.266;2022-08-07T12:49:03;5.90;;;2.93;;
4424;SDS011;2225;53.568;13.266;2022-08-07T12:52:00;6.03;;;2.80;;
4424;SDS011;2225;53.568;13.266;2022-08-07T12:54:43;7.50;;;2.90;;
4424;SDS011;2225;53.568;13.266;2022-08-07T12:57:33;13.90;;;6.10;;
4424;SDS011;2225;53.568;13.266;2022-08-07T13:00:37;16.70;;;5.83;;
4424;SDS011;2225;53.568;13.266;2022-08-07T13:19:30;6.33;;;3.00;;
4424;SDS011;2225;53.568;13.266;2022-08-07T13:22:25;7.73;;;3.13;;
4424;SDS011;2225;53.568;13.266;2022-08-07T13:25:01;12.33;;;3.47;;
4424;SDS011;2225;53.568;13.266;2022-08-07T13:27:55;6.77;;;2.50;;
4424;SDS011;2225;53.568;13.266;2022-08-07T13:30:39;4.17;;;2.63;;
4424;SDS011;2225;53.568;13.266;2022-08-07T13:33:32;5.63;;;2.93;;
4424;SDS011;2225;53.568;13.266;2022-08-07T13:36:52;6.63;;;2.93;;
4424;SDS011;2225;53.568;13.266;2022-08-07T13:39:27;4.97;;;3.10;;
4424;SDS011;2225;53.568;13.266;2022-08-07T13:42:25;7.63;;;3.50;;
4424;SDS011;2225;53.568;13.266;2022-08-07T13:44:53;5.93;;;3.17;;
4424;SDS011;2225;53.568;13.266;2022-08-07T13:47:41;4.90;;;2.50;;
4424;SDS011;2225;53.568;13.266;2022-08-07T13:50:30;4.97;;;2.70;;
4424;SDS011;2225;53.568;13.266;2022-08-07T13:53:18;7.63;;;3.33;;
4424;SDS011;2225;53.568;13.266;2022-08-07T13:55:49;8.97;;;3.10;;
4424;SDS011;2225;53.568;13.266;2022-08-07T13:58:21;11.10;;;2.67;;
4424;SDS011;2225;53.568;13.266;2022-08-07T14:01:21;7.77;;;3.00;;
4424;SDS011;2225;53.568;13.266;2022-08-07T14:04:02;4.40;;;3.13;;
4424;SDS011;2225;53.568;13.266;2022-08-07T14:06:38;8.83;;;3.00;;
4424;SDS011;2225;53.568;13.266;2022-08-07T14:09:14;8.93;;;2.80;;
4424;SDS011;2225;53.568;13.266;2022-08-07T14:12:07;5.90;;;3.00;;
4424;SDS011;2225;53.568;13.266;2022-08-07T14:14:59;5.83;;;3.30;;
4424;SDS011;2225;53.568;13.266;2022-08-07T14:17:33;4.23;;;2.60;;
4424;SDS011;2225;53.568;13.266;2022-08-07T14:20:25;6.10;;;3.30;;
4424;SDS011;2225;53.568;13.266;2022-08-07T14:23:19;4.70;;;3.00;;
4424;SDS011;2225;53.568;13.266;2022-08-07T14:26:16;4.60;;;2.90;;
4424;SDS011;2225;53.568;13.266;2022-08-07T14:28:55;4.10;;;2.53;;
4424;SDS011;2225;53.568;13.266;2022-08-07T14:31:35;4.70;;;2.70;;
4424;SDS011;2225;53.568;13.266;2022-08-07T14:34:09;5.40;;;3.00;;
4424;SDS011;2225;53.568;13.266;2022-08-07T14:36:46;4.73;;;2.47;;
4424;SDS011;2225;53.568;13.266;2022-08-07T14:39:21;4.73;;;2.73;;
4424;SDS011;2225;53.568;13.266;2022-08-07T14:42:10;5.20;;;2.70;;
4424;SDS011;2225;53.568;13.266;2022-08-07T14:44:48;5.00;;;2.70;;
4424;SDS011;2225;53.568;13.266;2022-08-07T14:47:24;5.53;;;2.93;;
4424;SDS011;2225;53.568;13.266;2022-08-07T14:49:59;6.40;;;3.00;;
4424;SDS011;2225;53.568;13.266;2022-08-07T14:52:39;5.00;;;2.83;;
4424;SDS011;2225;53.568;13.266;2022-08-07T14:55:06;5.43;;;3.30;;
4424;SDS011;2225;53.568;13.266;2022-08-07T14:57:45;5.60;;;3.07;;
4424;SDS011;2225;53.568;13.266;2022-08-07T15:00:28;5.77;;;2.87;;
4424;SDS011;2225;53.568;13.266;2022-08-07T15:02:57;6.93;;;3.07;;
4424;SDS011;2225;53.568;13.266;2022-08-07T15:05:48;5.50;;;2.90;;
4424;SDS011;2225;53.568;13.266;2022-08-07T15:08:30;5.20;;;2.70;;
4424;SDS011;2225;53.568;13.266;2022-08-07T15:11:19;4.43;;;2.50;;
4424;SDS011;2225;53.568;13.266;2022-08-07T15:14:12;4.17;;;2.47;;
4424;SDS011;2225;53.568;13.266;2022-08-07T15:16:46;8.00;;;2.73;;
4424;SDS011;2225;53.568;13.266;2022-08-07T15:19:21;5.90;;;3.00;;
4424;SDS011;2225;53.568;13.266;2022-08-07T15:22:14;4.80;;;2.93;;
4424;SDS011;2225;53.568;13.266;2022-08-07T15:24:58;6.07;;;2.47;;
4424;SDS011;2225;53.568;13.266;2022-08-07T15:27:45;5.23;;;2.83;;
4424;SDS011;2225;53.568;13.266;2022-08-07T15:30:34;5.83;;;3.00;;
4424;SDS011;2225;53.568;13.266;2022-08-07T15:33:22;5.50;;;2.70;;
4424;SDS011;2225;53.568;13.266;2022-08-07T15:35:59;6.37;;;2.80;;
4424;SDS011;2225;53.568;13.266;2022-08-07T15:38:30;6.80;;;3.10;;
4424;SDS011;2225;53.568;13.266;2022-08-07T15:41:23;5.60;;;3.00;;
4424;SDS011;2225;53.568;13.266;2022-08-07T15:44:16;6.20;;;2.70;;
4424;SDS011;2225;53.568;13.266;2022-08-07T15:46:59;15.50;;;2.90;;
4424;SDS011;2225;53.568;13.266;2022-08-07T15:49:42;6.20;;;3.40;;
4424;SDS011;2225;53.568;13.266;2022-08-07T15:52:33;7.87;;;3.40;;
4424;SDS011;2225;53.568;13.266;2022-08-07T15:55:03;5.43;;;2.97;;
4424;SDS011;2225;53.568;13.266;2022-08-07T15:57:37;5.83;;;3.30;;
4424;SDS011;2225;53.568;13.266;2022-08-07T16:00:15;8.97;;;2.97;;
4424;SDS011;2225;53.568;13.266;2022-08-07T16:03:00;7.77;;;2.63;;
4424;SDS011;2225;53.568;13.266;2022-08-07T16:05:48;4.83;;;2.83;;
4424;SDS011;2225;53.568;13.266;2022-08-07T16:08:21;7.27;;;2.80;;
4424;SDS011;2225;53.568;13.266;2022-08-07T16:11:04;4.93;;;2.77;;
4424;SDS011;2225;53.568;13.266;2022-08-07T16:17:01;10.57;;;2.80;;
4424;SDS011;2225;53.568;13.266;2022-08-07T16:23:47;6.07;;;3.10;;
4424;SDS011;2225;53.568;13.266;2022-08-07T16:39:17;9.40;;;3.13;;
4424;SDS011;2225;53.568;13.266;2022-08-07T16:52:27;5.23;;;2.60;;
4424;SDS011;2225;53.568;13.266;2022-08-07T16:55:52;5.70;;;3.30;;
4424;SDS011;2225;53.568;13.266;2022-08-07T16:58:47;7.00;;;3.07;;
4424;SDS011;2225;53.568;13.266;2022-08-07T17:04:48;12.00;;;3.07;;
4424;SDS011;2225;53.568;13.266;2022-08-07T17:08:18;6.43;;;2.80;;
4424;SDS011;2225;53.568;13.266;2022-08-07T17:11:40;5.27;;;3.10;;
4424;SDS011;2225;53.568;13.266;2022-08-07T17:17:31;5.43;;;2.40;;
4424;SDS011;2225;53.568;13.266;2022-08-07T17:20:13;7.20;;;3.23;;
4424;SDS011;2225;53.568;13.266;2022-08-07T17:28:55;5.27;;;2.87;;
4424;SDS011;2225;53.568;13.266;2022-08-07T17:37:53;7.07;;;3.00;;
4424;SDS011;2225;53.568;13.266;2022-08-07T17:40:33;4.80;;;2.77;;
4424;SDS011;2225;53.568;13.266;2022-08-07T17:43:25;6.50;;;2.80;;
4424;SDS011;2225;53.568;13.266;2022-08-07T17:46:35;7.80;;;2.60;;
4424;SDS011;2225;53.568;13.266;2022-08-07T17:49:21;5.33;;;2.70;;
4424;SDS011;2225;53.568;13.266;2022-08-07T17:52:30;6.13;;;2.80;;
4424;SDS011;2225;53.568;13.266;2022-08-07T17:55:07;5.63;;;2.80;;
4424;SDS011;2225;53.568;13.266;2022-08-07T17:58:03;5.90;;;3.20;;
4424;SDS011;2225;53.568;13.266;2022-08-07T18:00:56;6.53;;;2.73;;
4424;SDS011;2225;53.568;13.266;2022-08-07T18:03:59;7.50;;;3.53;;
4424;SDS011;2225;53.568;13.266;2022-08-07T18:06:46;7.70;;;2.93;;
4424;SDS011;2225;53.568;13.266;2022-08-07T18:09:42;5.30;;;2.27;;
4424;SDS011;2225;53.568;13.266;2022-08-07T18:15:57;6.53;;;3.00;;
4424;SDS011;2225;53.568;13.266;2022-08-07T18:18:47;8.30;;;2.97;;
4424;SDS011;2225;53.568;13.266;2022-08-07T18:21:41;6.10;;;2.87;;
4424;SDS011;2225;53.568;13.266;2022-08-07T18:27:43;7.80;;;2.60;;
4424;SDS011;2225;53.568;13.266;2022-08-07T18:30:58;8.27;;;2.83;;
4424;SDS011;2225;53.568;13.266;2022-08-07T18:43:44;5.70;;;2.70;;
4424;SDS011;2225;53.568;13.266;2022-08-07T18:46:46;8.07;;;3.40;;
4424;SDS011;2225;53.568;13.266;2022-08-07T18:52:48;6.37;;;3.00;;
4424;SDS011;2225;53.568;13.266;2022-08-07T18:55:50;7.17;;;2.60;;
4424;SDS011;2225;53.568;13.266;2022-08-07T18:58:33;11.87;;;3.50;;
4424;SDS011;2225;53.568;13.266;2022-08-07T19:10:28;7.80;;;3.23;;
4424;SDS011;2225;53.568;13.266;2022-08-07T19:16:17;16.00;;;4.33;;
4424;SDS011;2225;53.568;13.266;2022-08-07T19:25:03;6.83;;;3.20;;
4424;SDS011;2225;53.568;13.266;2022-08-07T19:27:58;7.97;;;3.10;;
4424;SDS011;2225;53.568;13.266;2022-08-07T19:30:49;13.57;;;3.23;;
4424;SDS011;2225;53.568;13.266;2022-08-07T19:33:45;8.53;;;3.83;;
4424;SDS011;2225;53.568;13.266;2022-08-07T19:36:24;8.30;;;2.90;;